KTVL Airport Information

Runway Information
Runway 18 Length 8544 ft width 150 ft
Elevation 6251 ft Threshold 0 ft Heading 193
Runway 36 Length 8544 ft Width 150 ft
Elevation 6259 ft Threshold 2037 ft Heading 13
Airport Frequencies
Type ASOS Name ASOS Frequency 124.725 MHZ
Type CNTR Name OAKLAND CN Frequency 127.95 MHZ
Type CTAF Name CTAF Frequency 122.95 MHZ
Type RDO Name RENO RDO Frequency 122.25 MHZ
Type UNIC Name UNICOM Frequency 122.95 MHZ
Airport Navaids
Airport Weather Information & NOTAM
ADDS - METARS form results

(1130 UTC 21 April 2018)
 
METAR text: KTVL 211053Z AUTO 00000KT 10SM CLR M01/M03 A3029 RMK AO2 SLP234 T10111033
Conditions at: KTVL (SOUTH LAKE TAHOE, CA, US) observed 1053 UTC 21 April 2018
Temperature: -1.1°C (30°F)
Dewpoint: -3.3°C (26°F) [RH = 85%]
Pressure (altimeter): 30.29 inches Hg (1025.8 mb)
[Sea-level pressure: 1023.4 mb]
Winds: calm
Visibility: 10 or more miles (16+ km)
Ceiling: at least 12,000 feet AGL
Clouds: sky clear below 12,000 feet AGL
Weather: automated observation with no human augmentation;
there may or may not be significant weather present at this time